WetterOnline ( http://www.wetteronline.de )

Wetter aktuell Donau-Ries

Aktuelles Wetter: Harburg (503m)

6-stündlich | Neueste Meldungen
Ortszeit Temperatur Wetter
Di, 25.09. 8:00 4.3° C leicht bewölkt
Di, 25.09. 2:00 6.2° C wolkig
Mo, 24.09. 20:00 8.8° C bewölkt
Mo, 24.09. 14:00 11.4° C leicht bewölkt
Mo, 24.09. 8:00 6.2° C leicht bewölkt
Mo, 24.09. 2:00 7.8° C bedeckt
So, 23.09. 20:00 -° C leichter Regen
So, 23.09. 14:00 21.6° C wolkig
Ortszeit Temperatur Wetter
Di, 25.09. 12:30 10.0° C leicht bewölkt
Di, 25.09. 12:20 10.0° C leicht bewölkt
Di, 25.09. 12:10 10.1° C leicht bewölkt
Di, 25.09. 12:00 10.0° C wolkig
Di, 25.09. 11:50 10.0° C wolkig
Di, 25.09. 11:40 9.6° C leicht bewölkt
Di, 25.09. 11:30 8.8° C leicht bewölkt
Di, 25.09. 11:00 7.6° C fast wolkenlos
Di, 25.09. 10:30 7.7° C wolkig
Di, 25.09. 10:00 7.1° C wolkig
Di, 25.09. 9:30 7.0° C leicht bewölkt
Ortszeit Relative Feuchte Sichtweite
Di, 25.09. 8:00 87% 35 km
Di, 25.09. 2:00 81% 60 km
Mo, 24.09. 20:00 67% 65 km
Mo, 24.09. 14:00 51% 30 km
Mo, 24.09. 8:00 91% 35 km
Mo, 24.09. 2:00 86% 70 km
So, 23.09. 20:00 - 21 km
So, 23.09. 14:00 74% 40 km
Ortszeit Relative Feuchte Sichtweite
Di, 25.09. 12:30 53% 65 km
Di, 25.09. 12:20 53% -
Di, 25.09. 12:10 54% -
Di, 25.09. 12:00 60% 40 km
Di, 25.09. 11:50 60% -
Di, 25.09. 11:40 56% -
Di, 25.09. 11:30 68% 70 km
Di, 25.09. 11:00 73% 65 km
Di, 25.09. 10:30 72% 50 km
Di, 25.09. 10:00 76% 45 km
Di, 25.09. 9:30 78% 45 km
Ortszeit Niederschlagsmenge Niederschlagsart
Di, 25.09. 8:00 0.0 l/m2 in 12 Std. -
Di, 25.09. 2:00 0.0 l/m2 in 6 Std. -
Mo, 24.09. 20:00 0.0 l/m2 in 12 Std. -
Mo, 24.09. 14:00 0.0 l/m2 in 6 Std. -
Mo, 24.09. 8:00 9 l/m2 in 12 Std. -
Mo, 24.09. 2:00 9 l/m2 in 6 Std. Regen
So, 23.09. 20:00 3 l/m2 in 12 Std. Regenschauer
So, 23.09. 14:00 0.1 l/m2 in 6 Std. Regen
Ortszeit Niederschlagsmenge Niederschlagsart
Di, 25.09. 12:30 0.0 l/m2 in 1 Std. -
Di, 25.09. 12:20 keine Meldung -
Di, 25.09. 12:10 keine Meldung -
Di, 25.09. 12:00 0.0 l/m2 in 1 Std. -
Di, 25.09. 11:50 keine Meldung -
Di, 25.09. 11:40 keine Meldung -
Di, 25.09. 11:30 0.0 l/m2 in 1 Std. -
Di, 25.09. 11:00 0.0 l/m2 in 1 Std. -
Di, 25.09. 10:30 0.0 l/m2 in 1 Std. -
Di, 25.09. 10:00 0.0 l/m2 in 1 Std. -
Di, 25.09. 9:30 0.0 l/m2 in 1 Std. -
Ortszeit Stärke Spitze Richtung
km/h Bft. km/h Grad Sektor
Di, 25.09. 8:00 6 1 20 10° N
Di, 25.09. 2:00 11 2 22 320° NW
Mo, 24.09. 20:00 11 2 50 280° W
Mo, 24.09. 14:00 29 5 54 330° NW
Mo, 24.09. 8:00 26 4 44 310° NW
Mo, 24.09. 2:00 28 4 78 320° NW
So, 23.09. 20:00 40 6 90 290° W
So, 23.09. 14:00 20 4 50 230° SW
Ortszeit Stärke Spitze Richtung
km/h Bft. km/h Grad Sektor
Di, 25.09. 12:30 7 2 19 40° NO
Di, 25.09. 12:20 7 2 - 40° NO
Di, 25.09. 12:10 9 2 - 50° NO
Di, 25.09. 12:00 11 2 22 40° NO
Di, 25.09. 11:50 11 2 - 40° NO
Di, 25.09. 11:40 11 2 - 50° NO
Di, 25.09. 11:30 13 3 22 50° NO
Di, 25.09. 11:00 7 2 15 40° NO
Di, 25.09. 10:30 7 2 11 90° O
Di, 25.09. 10:00 7 2 14 50° NO
Di, 25.09. 9:30 6 1 11 60° NO
Ortszeit Untergrenze Bedeckung Gattung
total tief tief mittel hoch
Di, 25.09. 8:00 5700 m 2/8 2/8 - - -
Di, 25.09. 2:00 1380 m 6/8 3/8 - - -
Mo, 24.09. 20:00 6000 m 7/8 7/8 - - -
Mo, 24.09. 14:00 6000 m 4/8 4/8 - - -
Mo, 24.09. 8:00 6000 m 4/8 4/8 - - -
Mo, 24.09. 2:00 420 m 8/8 8/8 - - -
So, 23.09. 20:00 570 m 8/8 8/8 - - -
So, 23.09. 14:00 1110 m 5/8 5/8 - - -
Ortszeit Bedeckungsgrad in Achtel und Wolkenuntergrenze
Di, 25.09. 12:30 2(6000m) 3(6600m)
Di, 25.09. 12:20 2(6000m) 3(6600m)
Di, 25.09. 12:10 3(6000m) 4(6600m)
Di, 25.09. 12:00 6(6000m) 7(6600m)
Di, 25.09. 11:50 6(6000m)
Di, 25.09. 11:40 3(6000m)
Di, 25.09. 11:30 4(6000m)
Di, 25.09. 11:00 1(5700m)
Di, 25.09. 10:30 4(480m) 6(600m)
Di, 25.09. 10:00 6(390m) 6(510m)
Di, 25.09. 9:30 3(5700m) 3(6600m)
Ortszeit Luftdruck NN (hPa) Tendenz (hPa in 3 Std.)
Di, 25.09. 8:00 1039 + 1,1
Di, 25.09. 2:00 1037 + 1,1
Mo, 24.09. 20:00 1034 + 1,0
Mo, 24.09. 14:00 1032 + 0,5
Mo, 24.09. 8:00 1030 + 2,6
Mo, 24.09. 2:00 1024 + 8,4
So, 23.09. 20:00 1009 + 0,4
So, 23.09. 14:00 1011 - 2,6
Ortszeit Luftdruck NN (hPa) Tendenz (hPa in 3 Std.)
Di, 25.09. 12:30 1039 + 0,3
Di, 25.09. 12:20 1039 keine Meldung
Di, 25.09. 12:10 1039 keine Meldung
Di, 25.09. 12:00 1039 + 0,8
Di, 25.09. 11:50 1039 keine Meldung
Di, 25.09. 11:40 1039 keine Meldung
Di, 25.09. 11:30 1040 + 1,3
Di, 25.09. 11:00 1040 + 1,5
Di, 25.09. 10:30 1040 + 1,8
Di, 25.09. 10:00 1040 + 2,1
Di, 25.09. 9:30 1039 + 1,8
Ortszeit Schneehöhe (cm)
Di, 25.09. 8:00 -
Di, 25.09. 2:00 -
Mo, 24.09. 20:00 -
Mo, 24.09. 14:00 -
Mo, 24.09. 8:00 -
Mo, 24.09. 2:00 -
So, 23.09. 20:00 -
So, 23.09. 14:00 -
Ortszeit Schneehöhe (cm)
Di, 25.09. 12:30 -
Di, 25.09. 12:20 -
Di, 25.09. 12:10 -
Di, 25.09. 12:00 -
Di, 25.09. 11:50 -
Di, 25.09. 11:40 -
Di, 25.09. 11:30 -
Di, 25.09. 11:00 -
Di, 25.09. 10:30 -
Di, 25.09. 10:00 -
Di, 25.09. 9:30 -
Link zu dieser Seite / Seite empfehlen

Das Wetter in ...